sensor_id;sensor_type;location;lat;lon;timestamp;pressure;altitude;pressure_sealevel;temperature;humidity
28911;BME280;16028;42.642;23.310;2023-05-03T00:01:30;94255.31;;;13.27;48.15
28911;BME280;16028;42.642;23.310;2023-05-03T00:03:57;94249.25;;;13.19;47.87
28911;BME280;16028;42.642;23.310;2023-05-03T00:06:25;94260.63;;;13.10;48.25
28911;BME280;16028;42.642;23.310;2023-05-03T00:08:52;94260.72;;;13.00;48.38
28911;BME280;16028;42.642;23.310;2023-05-03T00:11:19;94270.31;;;12.92;47.96
28911;BME280;16028;42.642;23.310;2023-05-03T00:13:45;94262.72;;;12.81;47.86
28911;BME280;16028;42.642;23.310;2023-05-03T00:16:12;94267.75;;;12.74;48.02
28911;BME280;16028;42.642;23.310;2023-05-03T00:18:39;94270.53;;;12.72;48.35
28911;BME280;16028;42.642;23.310;2023-05-03T00:21:05;94261.38;;;12.77;48.38
28911;BME280;16028;42.642;23.310;2023-05-03T00:23:33;94267.94;;;12.81;48.12
28911;BME280;16028;42.642;23.310;2023-05-03T00:26:00;94278.91;;;12.84;48.34
28911;BME280;16028;42.642;23.310;2023-05-03T00:28:27;94275.78;;;12.81;48.29
28911;BME280;16028;42.642;23.310;2023-05-03T00:30:53;94272.50;;;12.79;48.63
28911;BME280;16028;42.642;23.310;2023-05-03T00:33:20;94273.69;;;12.84;48.56
28911;BME280;16028;42.642;23.310;2023-05-03T00:35:47;94268.47;;;12.84;47.99
28911;BME280;16028;42.642;23.310;2023-05-03T00:38:14;94265.13;;;12.74;48.22
28911;BME280;16028;42.642;23.310;2023-05-03T00:40:42;94273.75;;;12.66;48.17
28911;BME280;16028;42.642;23.310;2023-05-03T00:43:10;94261.47;;;12.59;48.77
28911;BME280;16028;42.642;23.310;2023-05-03T00:45:37;94279.06;;;12.57;49.04
28911;BME280;16028;42.642;23.310;2023-05-03T00:48:04;94274.50;;;12.59;48.78
28911;BME280;16028;42.642;23.310;2023-05-03T00:50:31;94277.78;;;12.61;48.78
28911;BME280;16028;42.642;23.310;2023-05-03T00:52:58;94277.03;;;12.68;48.75
28911;BME280;16028;42.642;23.310;2023-05-03T00:55:27;94276.72;;;12.71;48.75
28911;BME280;16028;42.642;23.310;2023-05-03T00:57:57;94275.06;;;12.70;48.16
28911;BME280;16028;42.642;23.310;2023-05-03T01:00:23;94280.25;;;12.62;47.90
28911;BME280;16028;42.642;23.310;2023-05-03T01:02:50;94283.81;;;12.61;47.72
28911;BME280;16028;42.642;23.310;2023-05-03T01:05:20;94266.16;;;12.55;48.35
28911;BME280;16028;42.642;23.310;2023-05-03T01:07:55;94267.94;;;12.55;48.20
28911;BME280;16028;42.642;23.310;2023-05-03T01:10:31;94263.91;;;12.60;48.25
28911;BME280;16028;42.642;23.310;2023-05-03T01:13:08;94267.84;;;12.64;47.84
28911;BME280;16028;42.642;23.310;2023-05-03T01:15:44;94260.50;;;12.60;48.10
28911;BME280;16028;42.642;23.310;2023-05-03T01:18:18;94255.59;;;12.57;48.27
28911;BME280;16028;42.642;23.310;2023-05-03T01:20:48;94243.28;;;12.49;48.33
28911;BME280;16028;42.642;23.310;2023-05-03T01:23:26;94241.97;;;12.45;49.01
28911;BME280;16028;42.642;23.310;2023-05-03T01:25:56;94246.66;;;12.42;48.36
28911;BME280;16028;42.642;23.310;2023-05-03T01:28:23;94237.03;;;12.42;48.66
28911;BME280;16028;42.642;23.310;2023-05-03T01:30:51;94250.25;;;12.41;48.72
28911;BME280;16028;42.642;23.310;2023-05-03T01:33:27;94245.66;;;12.35;49.03
28911;BME280;16028;42.642;23.310;2023-05-03T01:36:02;94251.66;;;12.35;48.60
28911;BME280;16028;42.642;23.310;2023-05-03T01:38:32;94253.91;;;12.30;49.16
28911;BME280;16028;42.642;23.310;2023-05-03T01:41:08;94242.31;;;12.25;49.27
28911;BME280;16028;42.642;23.310;2023-05-03T01:43:35;94242.66;;;12.30;49.32
28911;BME280;16028;42.642;23.310;2023-05-03T01:46:03;94234.31;;;12.26;49.60
28911;BME280;16028;42.642;23.310;2023-05-03T01:48:30;94229.63;;;12.30;48.66
28911;BME280;16028;42.642;23.310;2023-05-03T01:50:57;94232.72;;;12.25;49.67
28911;BME280;16028;42.642;23.310;2023-05-03T01:53:23;94218.66;;;12.26;49.58
28911;BME280;16028;42.642;23.310;2023-05-03T01:55:50;94218.16;;;12.23;49.42
28911;BME280;16028;42.642;23.310;2023-05-03T01:58:18;94215.09;;;12.27;49.64
28911;BME280;16028;42.642;23.310;2023-05-03T02:00:46;94206.91;;;12.22;48.65
28911;BME280;16028;42.642;23.310;2023-05-03T02:03:13;94212.59;;;12.17;48.82
28911;BME280;16028;42.642;23.310;2023-05-03T02:05:40;94198.69;;;12.09;49.05
28911;BME280;16028;42.642;23.310;2023-05-03T02:08:07;94192.94;;;12.05;49.14
28911;BME280;16028;42.642;23.310;2023-05-03T02:10:34;94183.44;;;11.96;49.11
28911;BME280;16028;42.642;23.310;2023-05-03T02:13:01;94180.91;;;11.87;49.64
28911;BME280;16028;42.642;23.310;2023-05-03T02:15:29;94178.81;;;11.90;49.99
28911;BME280;16028;42.642;23.310;2023-05-03T02:17:56;94164.66;;;11.93;49.78
28911;BME280;16028;42.642;23.310;2023-05-03T02:20:26;94171.16;;;11.89;50.14
28911;BME280;16028;42.642;23.310;2023-05-03T02:22:56;94159.47;;;11.75;50.44
28911;BME280;16028;42.642;23.310;2023-05-03T02:25:23;94169.38;;;11.72;50.44
28911;BME280;16028;42.642;23.310;2023-05-03T02:27:50;94167.19;;;11.67;50.04
28911;BME280;16028;42.642;23.310;2023-05-03T02:30:17;94167.16;;;11.77;49.93
28911;BME280;16028;42.642;23.310;2023-05-03T02:32:45;94155.00;;;11.85;49.71
28911;BME280;16028;42.642;23.310;2023-05-03T02:35:12;94165.28;;;11.87;49.69
28911;BME280;16028;42.642;23.310;2023-05-03T02:37:38;94160.28;;;11.76;49.85
28911;BME280;16028;42.642;23.310;2023-05-03T02:40:06;94162.38;;;11.72;50.35
28911;BME280;16028;42.642;23.310;2023-05-03T02:42:35;94163.34;;;11.71;50.29
28911;BME280;16028;42.642;23.310;2023-05-03T02:45:02;94168.41;;;11.73;50.55
28911;BME280;16028;42.642;23.310;2023-05-03T02:47:31;94179.34;;;11.76;50.51
28911;BME280;16028;42.642;23.310;2023-05-03T02:50:00;94176.59;;;11.78;50.11
28911;BME280;16028;42.642;23.310;2023-05-03T02:52:26;94173.03;;;11.79;49.84
28911;BME280;16028;42.642;23.310;2023-05-03T02:54:53;94180.84;;;11.79;50.19
28911;BME280;16028;42.642;23.310;2023-05-03T02:57:20;94172.88;;;11.80;50.57
28911;BME280;16028;42.642;23.310;2023-05-03T02:59:46;94175.19;;;11.83;50.36
28911;BME280;16028;42.642;23.310;2023-05-03T03:02:13;94187.44;;;11.91;50.13
28911;BME280;16028;42.642;23.310;2023-05-03T03:04:40;94188.75;;;11.87;50.18
28911;BME280;16028;42.642;23.310;2023-05-03T03:07:08;94190.34;;;11.88;50.73
28911;BME280;16028;42.642;23.310;2023-05-03T03:09:35;94185.84;;;11.90;50.60
28911;BME280;16028;42.642;23.310;2023-05-03T03:12:02;94187.63;;;11.89;50.23
28911;BME280;16028;42.642;23.310;2023-05-03T03:14:28;94184.41;;;11.95;50.36
28911;BME280;16028;42.642;23.310;2023-05-03T03:16:55;94179.84;;;11.97;50.20
28911;BME280;16028;42.642;23.310;2023-05-03T03:19:22;94181.28;;;11.92;50.00
28911;BME280;16028;42.642;23.310;2023-05-03T03:21:49;94170.31;;;11.88;50.28
28911;BME280;16028;42.642;23.310;2023-05-03T03:24:17;94172.09;;;11.88;50.23
28911;BME280;16028;42.642;23.310;2023-05-03T03:26:44;94178.97;;;11.89;50.54
28911;BME280;16028;42.642;23.310;2023-05-03T03:29:10;94198.56;;;11.93;50.14
28911;BME280;16028;42.642;23.310;2023-05-03T03:31:37;94199.28;;;12.03;49.69
28911;BME280;16028;42.642;23.310;2023-05-03T03:34:04;94202.69;;;12.03;49.97
28911;BME280;16028;42.642;23.310;2023-05-03T03:36:30;94203.06;;;12.08;49.29
28911;BME280;16028;42.642;23.310;2023-05-03T03:38:57;94198.69;;;12.09;49.42
28911;BME280;16028;42.642;23.310;2023-05-03T03:41:25;94193.47;;;12.09;49.63
28911;BME280;16028;42.642;23.310;2023-05-03T03:43:52;94213.81;;;12.05;49.02
28911;BME280;16028;42.642;23.310;2023-05-03T03:46:18;94213.81;;;12.05;49.35
28911;BME280;16028;42.642;23.310;2023-05-03T03:48:45;94223.41;;;12.05;49.24
28911;BME280;16028;42.642;23.310;2023-05-03T03:51:12;94222.81;;;12.11;49.79
28911;BME280;16028;42.642;23.310;2023-05-03T03:53:38;94224.59;;;12.10;49.36
28911;BME280;16028;42.642;23.310;2023-05-03T03:56:06;94223.94;;;12.08;49.04
28911;BME280;16028;42.642;23.310;2023-05-03T03:58:34;94223.63;;;11.94;49.36
28911;BME280;16028;42.642;23.310;2023-05-03T04:01:01;94234.75;;;11.96;49.53
28911;BME280;16028;42.642;23.310;2023-05-03T04:03:28;94240.41;;;11.91;49.68
28911;BME280;16028;42.642;23.310;2023-05-03T04:05:55;94239.56;;;11.91;49.75
28911;BME280;16028;42.642;23.310;2023-05-03T04:08:21;94234.13;;;11.84;50.10
28911;BME280;16028;42.642;23.310;2023-05-03T04:10:48;94237.88;;;11.82;50.13
28911;BME280;16028;42.642;23.310;2023-05-03T04:13:15;94249.25;;;11.81;50.46
28911;BME280;16028;42.642;23.310;2023-05-03T04:15:43;94264.63;;;11.84;50.06
28911;BME280;16028;42.642;23.310;2023-05-03T04:18:10;94253.22;;;11.85;50.38
28911;BME280;16028;42.642;23.310;2023-05-03T04:20:36;94266.72;;;11.80;50.71
28911;BME280;16028;42.642;23.310;2023-05-03T04:23:03;94252.25;;;11.86;51.03
28911;BME280;16028;42.642;23.310;2023-05-03T04:25:30;94273.09;;;11.86;50.56
28911;BME280;16028;42.642;23.310;2023-05-03T04:27:57;94259.78;;;11.89;50.59
28911;BME280;16028;42.642;23.310;2023-05-03T04:30:24;94272.63;;;11.90;50.65
28911;BME280;16028;42.642;23.310;2023-05-03T04:32:52;94282.94;;;11.92;50.31
28911;BME280;16028;42.642;23.310;2023-05-03T04:35:19;94284.06;;;11.89;50.60
28911;BME280;16028;42.642;23.310;2023-05-03T04:37:46;94265.13;;;11.87;50.42
28911;BME280;16028;42.642;23.310;2023-05-03T04:40:13;94260.22;;;11.84;50.61
28911;BME280;16028;42.642;23.310;2023-05-03T04:42:41;94281.88;;;11.85;49.99
28911;BME280;16028;42.642;23.310;2023-05-03T04:45:09;94294.56;;;11.80;50.77
28911;BME280;16028;42.642;23.310;2023-05-03T04:47:36;94285.59;;;11.82;51.23
28911;BME280;16028;42.642;23.310;2023-05-03T04:50:05;94294.91;;;11.85;51.06
28911;BME280;16028;42.642;23.310;2023-05-03T04:52:33;94300.94;;;11.85;51.03
28911;BME280;16028;42.642;23.310;2023-05-03T04:55:00;94302.44;;;11.88;51.17
28911;BME280;16028;42.642;23.310;2023-05-03T04:57:27;94309.59;;;11.86;51.10
28911;BME280;16028;42.642;23.310;2023-05-03T04:59:54;94316.97;;;11.90;51.98
28911;BME280;16028;42.642;23.310;2023-05-03T05:02:21;94324.78;;;11.90;53.51
28911;BME280;16028;42.642;23.310;2023-05-03T05:04:48;94337.38;;;11.95;55.82
28911;BME280;16028;42.642;23.310;2023-05-03T05:07:16;94322.84;;;11.92;57.49
28911;BME280;16028;42.642;23.310;2023-05-03T05:09:43;94334.00;;;11.85;57.58
28911;BME280;16028;42.642;23.310;2023-05-03T05:12:10;94331.75;;;11.72;57.93
28911;BME280;16028;42.642;23.310;2023-05-03T05:14:37;94323.81;;;11.74;58.70
28911;BME280;16028;42.642;23.310;2023-05-03T05:17:04;94333.81;;;11.68;56.95
28911;BME280;16028;42.642;23.310;2023-05-03T05:19:30;94353.03;;;11.67;56.98
28911;BME280;16028;42.642;23.310;2023-05-03T05:21:57;94353.16;;;11.66;58.30
28911;BME280;16028;42.642;23.310;2023-05-03T05:24:25;94348.22;;;11.73;58.80
28911;BME280;16028;42.642;23.310;2023-05-03T05:26:52;94346.16;;;11.76;58.04
28911;BME280;16028;42.642;23.310;2023-05-03T05:29:19;94352.88;;;11.69;58.57
28911;BME280;16028;42.642;23.310;2023-05-03T05:31:45;94352.59;;;11.72;57.39
28911;BME280;16028;42.642;23.310;2023-05-03T05:34:12;94368.94;;;11.74;58.80
28911;BME280;16028;42.642;23.310;2023-05-03T05:36:39;94369.31;;;11.79;58.10
28911;BME280;16028;42.642;23.310;2023-05-03T05:39:06;94367.91;;;11.85;58.12
28911;BME280;16028;42.642;23.310;2023-05-03T05:41:34;94360.78;;;11.87;57.89
28911;BME280;16028;42.642;23.310;2023-05-03T05:44:01;94349.53;;;11.86;57.41
28911;BME280;16028;42.642;23.310;2023-05-03T05:46:28;94354.03;;;11.84;57.57
28911;BME280;16028;42.642;23.310;2023-05-03T05:48:54;94360.53;;;11.80;58.76
28911;BME280;16028;42.642;23.310;2023-05-03T05:51:21;94351.31;;;11.86;57.47
28911;BME280;16028;42.642;23.310;2023-05-03T05:53:48;94350.63;;;11.84;59.46
28911;BME280;16028;42.642;23.310;2023-05-03T05:56:14;94350.09;;;11.80;60.43
28911;BME280;16028;42.642;23.310;2023-05-03T05:58:42;94355.63;;;11.77;59.83
28911;BME280;16028;42.642;23.310;2023-05-03T06:01:09;94358.59;;;11.82;59.46
28911;BME280;16028;42.642;23.310;2023-05-03T06:03:36;94370.13;;;11.80;58.80
28911;BME280;16028;42.642;23.310;2023-05-03T06:06:03;94361.25;;;11.73;57.23
28911;BME280;16028;42.642;23.310;2023-05-03T06:08:29;94358.06;;;11.79;58.40
28911;BME280;16028;42.642;23.310;2023-05-03T06:10:56;94357.81;;;11.72;58.40
28911;BME280;16028;42.642;23.310;2023-05-03T06:13:23;94356.31;;;11.69;57.54
28911;BME280;16028;42.642;23.310;2023-05-03T06:15:51;94353.31;;;11.74;59.07
28911;BME280;16028;42.642;23.310;2023-05-03T06:18:21;94348.28;;;11.81;59.04
28911;BME280;16028;42.642;23.310;2023-05-03T06:20:48;94345.44;;;11.84;59.74
28911;BME280;16028;42.642;23.310;2023-05-03T06:23:15;94364.34;;;11.86;61.38
28911;BME280;16028;42.642;23.310;2023-05-03T06:25:45;94358.16;;;11.87;61.80
28911;BME280;16028;42.642;23.310;2023-05-03T06:28:11;94350.03;;;11.90;62.48
28911;BME280;16028;42.642;23.310;2023-05-03T06:30:38;94337.69;;;11.92;62.42
28911;BME280;16028;42.642;23.310;2023-05-03T06:33:06;94337.00;;;11.90;61.39
28911;BME280;16028;42.642;23.310;2023-05-03T06:35:33;94329.19;;;11.90;61.42
28911;BME280;16028;42.642;23.310;2023-05-03T06:38:00;94326.00;;;11.96;60.66
28911;BME280;16028;42.642;23.310;2023-05-03T06:40:26;94311.53;;;11.84;60.97
28911;BME280;16028;42.642;23.310;2023-05-03T06:42:53;94308.41;;;11.80;61.24
28911;BME280;16028;42.642;23.310;2023-05-03T06:45:20;94299.59;;;11.81;62.10
28911;BME280;16028;42.642;23.310;2023-05-03T06:47:46;94304.69;;;11.83;61.30
28911;BME280;16028;42.642;23.310;2023-05-03T06:50:16;94304.22;;;11.87;61.64
28911;BME280;16028;42.642;23.310;2023-05-03T06:52:44;94283.06;;;11.90;61.67
28911;BME280;16028;42.642;23.310;2023-05-03T06:55:11;94299.16;;;11.86;61.79
28911;BME280;16028;42.642;23.310;2023-05-03T06:57:39;94311.75;;;11.90;61.18
28911;BME280;16028;42.642;23.310;2023-05-03T07:00:07;94304.91;;;11.89;61.05
28911;BME280;16028;42.642;23.310;2023-05-03T07:02:35;94295.84;;;11.93;60.96
28911;BME280;16028;42.642;23.310;2023-05-03T07:05:05;94299.63;;;11.99;60.92
28911;BME280;16028;42.642;23.310;2023-05-03T07:07:34;94300.81;;;12.04;60.82
28911;BME280;16028;42.642;23.310;2023-05-03T07:10:00;94289.25;;;12.07;61.03
28911;BME280;16028;42.642;23.310;2023-05-03T07:12:29;94298.13;;;12.14;59.72
28911;BME280;16028;42.642;23.310;2023-05-03T07:14:56;94301.38;;;12.16;60.57
28911;BME280;16028;42.642;23.310;2023-05-03T07:17:23;94304.38;;;12.21;60.44
28911;BME280;16028;42.642;23.310;2023-05-03T07:19:51;94293.97;;;12.21;60.53
28911;BME280;16028;42.642;23.310;2023-05-03T07:22:18;94298.69;;;12.26;60.04
28911;BME280;16028;42.642;23.310;2023-05-03T07:24:46;94292.22;;;12.30;61.39
28911;BME280;16028;42.642;23.310;2023-05-03T07:27:13;94299.22;;;12.29;59.53
28911;BME280;16028;42.642;23.310;2023-05-03T07:29:40;94305.25;;;12.30;59.55
28911;BME280;16028;42.642;23.310;2023-05-03T07:32:07;94293.66;;;12.24;60.29
28911;BME280;16028;42.642;23.310;2023-05-03T07:34:34;94298.69;;;12.26;61.57
28911;BME280;16028;42.642;23.310;2023-05-03T07:37:00;94291.25;;;12.31;60.98
28911;BME280;16028;42.642;23.310;2023-05-03T07:39:29;94291.63;;;12.36;60.82
28911;BME280;16028;42.642;23.310;2023-05-03T07:41:57;94291.47;;;12.37;61.37
28911;BME280;16028;42.642;23.310;2023-05-03T07:44:24;94305.56;;;12.44;61.01
28911;BME280;16028;42.642;23.310;2023-05-03T07:46:51;94296.09;;;12.43;61.18
28911;BME280;16028;42.642;23.310;2023-05-03T07:49:17;94311.28;;;12.48;60.88
28911;BME280;16028;42.642;23.310;2023-05-03T07:51:44;94318.78;;;12.51;62.19
28911;BME280;16028;42.642;23.310;2023-05-03T07:54:11;94320.00;;;12.56;62.21
28911;BME280;16028;42.642;23.310;2023-05-03T07:56:38;94316.78;;;12.62;61.65
28911;BME280;16028;42.642;23.310;2023-05-03T07:59:06;94322.53;;;12.66;62.06
28911;BME280;16028;42.642;23.310;2023-05-03T08:01:32;94321.38;;;12.68;61.33
28911;BME280;16028;42.642;23.310;2023-05-03T08:03:59;94333.47;;;12.69;62.03
28911;BME280;16028;42.642;23.310;2023-05-03T08:06:26;94341.81;;;12.73;61.93
28911;BME280;16028;42.642;23.310;2023-05-03T08:08:53;94335.00;;;12.80;62.90
28911;BME280;16028;42.642;23.310;2023-05-03T08:11:20;94330.00;;;12.87;62.98
28911;BME280;16028;42.642;23.310;2023-05-03T08:13:46;94325.81;;;13.02;63.05
28911;BME280;16028;42.642;23.310;2023-05-03T08:16:15;94328.69;;;13.08;62.03
28911;BME280;16028;42.642;23.310;2023-05-03T08:18:41;94332.25;;;13.07;62.13
28911;BME280;16028;42.642;23.310;2023-05-03T08:21:08;94331.56;;;13.05;62.89
28911;BME280;16028;42.642;23.310;2023-05-03T08:23:37;94336.13;;;13.03;62.55
28911;BME280;16028;42.642;23.310;2023-05-03T08:26:04;94334.84;;;13.07;62.61
28911;BME280;16028;42.642;23.310;2023-05-03T08:28:32;94344.13;;;13.27;60.77
28911;BME280;16028;42.642;23.310;2023-05-03T08:30:58;94344.81;;;13.30;61.01
28911;BME280;16028;42.642;23.310;2023-05-03T08:33:29;94352.84;;;13.36;62.43
28911;BME280;16028;42.642;23.310;2023-05-03T08:35:55;94348.00;;;13.49;62.15
28911;BME280;16028;42.642;23.310;2023-05-03T08:38:22;94346.06;;;13.59;62.14
28911;BME280;16028;42.642;23.310;2023-05-03T08:40:50;94335.47;;;13.61;63.98
28911;BME280;16028;42.642;23.310;2023-05-03T08:43:19;94330.13;;;13.78;61.25
28911;BME280;16028;42.642;23.310;2023-05-03T08:45:46;94334.06;;;13.83;61.22
28911;BME280;16028;42.642;23.310;2023-05-03T08:48:13;94336.22;;;13.87;61.63
28911;BME280;16028;42.642;23.310;2023-05-03T08:50:41;94342.13;;;13.97;61.41
28911;BME280;16028;42.642;23.310;2023-05-03T08:53:09;94344.94;;;14.04;59.37
28911;BME280;16028;42.642;23.310;2023-05-03T08:55:36;94347.19;;;13.99;60.07
28911;BME280;16028;42.642;23.310;2023-05-03T08:58:05;94352.09;;;14.02;61.11
28911;BME280;16028;42.642;23.310;2023-05-03T09:00:35;94352.28;;;14.00;60.84
28911;BME280;16028;42.642;23.310;2023-05-03T09:03:02;94359.81;;;14.03;62.86
28911;BME280;16028;42.642;23.310;2023-05-03T09:05:30;94360.94;;;14.09;61.00
28911;BME280;16028;42.642;23.310;2023-05-03T09:08:05;94354.91;;;14.08;62.17
28911;BME280;16028;42.642;23.310;2023-05-03T09:10:37;94358.00;;;14.20;61.11
28911;BME280;16028;42.642;23.310;2023-05-03T09:13:04;94346.16;;;14.42;60.79
28911;BME280;16028;42.642;23.310;2023-05-03T09:15:31;94336.97;;;14.62;60.20
28911;BME280;16028;42.642;23.310;2023-05-03T09:18:12;94333.53;;;14.77;59.31
28911;BME280;16028;42.642;23.310;2023-05-03T09:20:40;94330.91;;;14.94;58.27
28911;BME280;16028;42.642;23.310;2023-05-03T09:23:11;94322.91;;;14.95;57.83
28911;BME280;16028;42.642;23.310;2023-05-03T09:25:42;94331.75;;;14.86;60.74
28911;BME280;16028;42.642;23.310;2023-05-03T09:28:10;94332.06;;;14.99;58.10
28911;BME280;16028;42.642;23.310;2023-05-03T09:30:37;94328.13;;;14.95;59.68
28911;BME280;16028;42.642;23.310;2023-05-03T09:33:04;94316.19;;;14.93;62.59
28911;BME280;16028;42.642;23.310;2023-05-03T09:35:30;94316.97;;;15.09;58.55
28911;BME280;16028;42.642;23.310;2023-05-03T09:37:57;94314.16;;;15.19;57.36
28911;BME280;16028;42.642;23.310;2023-05-03T09:40:26;94305.69;;;15.09;62.53
28911;BME280;16028;42.642;23.310;2023-05-03T09:43:09;94309.59;;;15.21;61.45
28911;BME280;16028;42.642;23.310;2023-05-03T09:45:37;94303.47;;;15.28;61.50
28911;BME280;16028;42.642;23.310;2023-05-03T09:48:05;94300.84;;;15.36;58.61
28911;BME280;16028;42.642;23.310;2023-05-03T09:50:33;94293.91;;;15.60;56.16
28911;BME280;16028;42.642;23.310;2023-05-03T09:53:01;94285.50;;;15.64;59.96
28911;BME280;16028;42.642;23.310;2023-05-03T09:55:34;94287.09;;;15.73;57.90
28911;BME280;16028;42.642;23.310;2023-05-03T09:58:02;94290.88;;;15.79;57.99
28911;BME280;16028;42.642;23.310;2023-05-03T10:00:35;94278.72;;;15.78;56.99
28911;BME280;16028;42.642;23.310;2023-05-03T10:03:06;94278.31;;;15.89;55.79
28911;BME280;16028;42.642;23.310;2023-05-03T10:05:39;94275.47;;;15.99;56.34
28911;BME280;16028;42.642;23.310;2023-05-03T10:08:09;94278.16;;;15.91;58.39
28911;BME280;16028;42.642;23.310;2023-05-03T10:10:43;94282.03;;;16.03;57.48
28911;BME280;16028;42.642;23.310;2023-05-03T10:13:12;94280.28;;;16.18;55.04
28911;BME280;16028;42.642;23.310;2023-05-03T10:15:40;94273.00;;;16.28;58.89
28911;BME280;16028;42.642;23.310;2023-05-03T10:18:09;94280.03;;;16.50;57.37
28911;BME280;16028;42.642;23.310;2023-05-03T10:20:42;94265.81;;;16.67;53.35
28911;BME280;16028;42.642;23.310;2023-05-03T10:23:12;94260.66;;;16.74;57.45
28911;BME280;16028;42.642;23.310;2023-05-03T10:26:12;94253.50;;;16.82;54.04
28911;BME280;16028;42.642;23.310;2023-05-03T10:28:39;94246.44;;;16.83;53.91
28911;BME280;16028;42.642;23.310;2023-05-03T10:31:43;94247.44;;;16.82;55.51
28911;BME280;16028;42.642;23.310;2023-05-03T10:34:22;94245.16;;;16.79;56.03
28911;BME280;16028;42.642;23.310;2023-05-03T10:36:50;94247.81;;;16.93;58.11
28911;BME280;16028;42.642;23.310;2023-05-03T10:39:18;94236.13;;;17.11;55.64
28911;BME280;16028;42.642;23.310;2023-05-03T10:41:57;94239.28;;;17.21;54.31
28911;BME280;16028;42.642;23.310;2023-05-03T10:44:26;94237.56;;;17.28;52.90
28911;BME280;16028;42.642;23.310;2023-05-03T10:46:53;94248.81;;;17.22;53.92
28911;BME280;16028;42.642;23.310;2023-05-03T10:49:21;94234.31;;;17.26;53.68
28911;BME280;16028;42.642;23.310;2023-05-03T10:51:49;94238.75;;;17.25;53.72
28911;BME280;16028;42.642;23.310;2023-05-03T10:54:16;94240.94;;;17.22;53.90
28911;BME280;16028;42.642;23.310;2023-05-03T10:56:54;94255.91;;;17.21;53.65
28911;BME280;16028;42.642;23.310;2023-05-03T10:59:23;94258.44;;;17.15;53.77
28911;BME280;16028;42.642;23.310;2023-05-03T11:01:51;94251.91;;;17.11;54.13
28911;BME280;16028;42.642;23.310;2023-05-03T11:04:40;94237.31;;;17.08;52.25
28911;BME280;16028;42.642;23.310;2023-05-03T11:07:18;94237.31;;;17.08;53.20
28911;BME280;16028;42.642;23.310;2023-05-03T11:09:45;94245.66;;;17.12;53.71
28911;BME280;16028;42.642;23.310;2023-05-03T11:12:12;94231.78;;;17.18;54.03
28911;BME280;16028;42.642;23.310;2023-05-03T11:14:40;94223.72;;;17.19;53.10
28911;BME280;16028;42.642;23.310;2023-05-03T11:17:07;94214.81;;;17.20;52.77
28911;BME280;16028;42.642;23.310;2023-05-03T11:19:34;94224.19;;;17.23;53.62
28911;BME280;16028;42.642;23.310;2023-05-03T11:22:02;94217.91;;;17.24;54.39
28911;BME280;16028;42.642;23.310;2023-05-03T11:24:29;94211.75;;;17.31;53.41
28911;BME280;16028;42.642;23.310;2023-05-03T11:26:56;94208.91;;;17.33;53.00
28911;BME280;16028;42.642;23.310;2023-05-03T11:29:23;94206.47;;;17.31;53.10
28911;BME280;16028;42.642;23.310;2023-05-03T11:31:52;94213.53;;;17.31;53.94
28911;BME280;16028;42.642;23.310;2023-05-03T11:34:18;94217.44;;;17.35;53.08
28911;BME280;16028;42.642;23.310;2023-05-03T11:36:45;94207.84;;;17.42;53.48
28911;BME280;16028;42.642;23.310;2023-05-03T11:39:13;94207.84;;;17.42;54.32
28911;BME280;16028;42.642;23.310;2023-05-03T11:41:40;94203.56;;;17.56;56.33
28911;BME280;16028;42.642;23.310;2023-05-03T11:44:07;94195.50;;;17.78;56.59
28911;BME280;16028;42.642;23.310;2023-05-03T11:46:36;94202.75;;;18.12;53.92
28911;BME280;16028;42.642;23.310;2023-05-03T11:49:05;94170.25;;;18.26;50.63
28911;BME280;16028;42.642;23.310;2023-05-03T11:51:33;94184.09;;;18.35;49.89
28911;BME280;16028;42.642;23.310;2023-05-03T11:54:00;94188.94;;;18.31;51.04
28911;BME280;16028;42.642;23.310;2023-05-03T11:56:28;94176.34;;;18.27;53.95
28911;BME280;16028;42.642;23.310;2023-05-03T11:58:56;94176.09;;;18.22;52.38
28911;BME280;16028;42.642;23.310;2023-05-03T12:01:25;94159.91;;;18.25;53.50
28911;BME280;16028;42.642;23.310;2023-05-03T12:03:53;94157.19;;;18.39;55.02
28911;BME280;16028;42.642;23.310;2023-05-03T12:06:23;94158.84;;;18.68;54.32
28911;BME280;16028;42.642;23.310;2023-05-03T12:08:51;94166.66;;;18.89;50.46
28911;BME280;16028;42.642;23.310;2023-05-03T12:11:18;94168.91;;;18.92;50.33
28911;BME280;16028;42.642;23.310;2023-05-03T12:13:54;94165.88;;;18.95;51.20
28911;BME280;16028;42.642;23.310;2023-05-03T12:16:22;94168.72;;;18.94;50.78
28911;BME280;16028;42.642;23.310;2023-05-03T12:18:51;94157.16;;;18.88;51.21
28911;BME280;16028;42.642;23.310;2023-05-03T12:21:19;94166.56;;;18.76;50.34
28911;BME280;16028;42.642;23.310;2023-05-03T12:23:47;94171.31;;;18.53;50.47
28911;BME280;16028;42.642;23.310;2023-05-03T12:26:16;94154.31;;;18.34;50.88
28911;BME280;16028;42.642;23.310;2023-05-03T12:28:43;94168.53;;;18.12;51.83
28911;BME280;16028;42.642;23.310;2023-05-03T12:31:09;94168.72;;;17.89;52.18
28911;BME280;16028;42.642;23.310;2023-05-03T12:33:36;94165.22;;;17.68;53.77
28911;BME280;16028;42.642;23.310;2023-05-03T12:36:04;94167.81;;;17.46;54.39
28911;BME280;16028;42.642;23.310;2023-05-03T12:38:31;94174.84;;;17.25;53.47
28911;BME280;16028;42.642;23.310;2023-05-03T12:41:00;94169.94;;;17.07;54.68
28911;BME280;16028;42.642;23.310;2023-05-03T12:43:27;94173.41;;;16.93;54.88
28911;BME280;16028;42.642;23.310;2023-05-03T12:45:54;94177.31;;;16.82;55.12
28911;BME280;16028;42.642;23.310;2023-05-03T12:48:23;94175.31;;;16.70;56.07
28911;BME280;16028;42.642;23.310;2023-05-03T12:50:50;94170.97;;;16.62;56.07
28911;BME280;16028;42.642;23.310;2023-05-03T12:53:18;94169.09;;;16.48;56.10
28911;BME280;16028;42.642;23.310;2023-05-03T12:55:46;94169.63;;;16.29;57.91